sensor_id;sensor_type;location;lat;lon;timestamp;P1;durP1;ratioP1;P2;durP2;ratioP2
60730;SDS011;46580;52.114;11.674;2023-04-25T00:00:13;7.63;;;4.90;;
60730;SDS011;46580;52.114;11.674;2023-04-25T00:02:39;7.03;;;4.87;;
60730;SDS011;46580;52.114;11.674;2023-04-25T00:05:04;7.60;;;4.40;;
60730;SDS011;46580;52.114;11.674;2023-04-25T00:07:30;7.83;;;4.63;;
60730;SDS011;46580;52.114;11.674;2023-04-25T00:09:57;5.37;;;3.93;;
60730;SDS011;46580;52.114;11.674;2023-04-25T00:12:23;7.57;;;4.30;;
60730;SDS011;46580;52.114;11.674;2023-04-25T00:14:48;7.63;;;4.33;;
60730;SDS011;46580;52.114;11.674;2023-04-25T00:17:15;7.30;;;4.60;;
60730;SDS011;46580;52.114;11.674;2023-04-25T00:19:41;10.27;;;4.77;;
60730;SDS011;46580;52.114;11.674;2023-04-25T00:22:10;6.47;;;4.27;;
60730;SDS011;46580;52.114;11.674;2023-04-25T00:24:35;8.43;;;3.93;;
60730;SDS011;46580;52.114;11.674;2023-04-25T00:27:01;4.87;;;3.67;;
60730;SDS011;46580;52.114;11.674;2023-04-25T00:29:26;8.20;;;4.07;;
60730;SDS011;46580;52.114;11.674;2023-04-25T00:31:51;6.63;;;3.73;;
60730;SDS011;46580;52.114;11.674;2023-04-25T00:34:17;9.57;;;4.13;;
60730;SDS011;46580;52.114;11.674;2023-04-25T00:36:42;9.77;;;3.97;;
60730;SDS011;46580;52.114;11.674;2023-04-25T00:39:07;7.20;;;4.07;;
60730;SDS011;46580;52.114;11.674;2023-04-25T00:41:33;9.87;;;4.40;;
60730;SDS011;46580;52.114;11.674;2023-04-25T00:43:58;9.87;;;3.57;;
60730;SDS011;46580;52.114;11.674;2023-04-25T00:46:25;6.37;;;4.30;;
60730;SDS011;46580;52.114;11.674;2023-04-25T00:48:50;9.50;;;4.40;;
60730;SDS011;46580;52.114;11.674;2023-04-25T00:51:16;10.47;;;4.57;;
60730;SDS011;46580;52.114;11.674;2023-04-25T00:53:45;4.67;;;3.60;;
60730;SDS011;46580;52.114;11.674;2023-04-25T00:56:12;7.97;;;3.90;;
60730;SDS011;46580;52.114;11.674;2023-04-25T00:58:37;7.67;;;3.87;;
60730;SDS011;46580;52.114;11.674;2023-04-25T01:01:03;7.07;;;4.30;;
60730;SDS011;46580;52.114;11.674;2023-04-25T01:03:29;10.17;;;3.97;;
60730;SDS011;46580;52.114;11.674;2023-04-25T01:06:00;6.63;;;4.10;;
60730;SDS011;46580;52.114;11.674;2023-04-25T01:08:26;7.23;;;4.00;;
60730;SDS011;46580;52.114;11.674;2023-04-25T01:10:52;11.73;;;4.37;;
60730;SDS011;46580;52.114;11.674;2023-04-25T01:13:17;8.27;;;3.93;;
60730;SDS011;46580;52.114;11.674;2023-04-25T01:15:42;8.60;;;4.23;;
60730;SDS011;46580;52.114;11.674;2023-04-25T01:18:08;8.40;;;4.70;;
60730;SDS011;46580;52.114;11.674;2023-04-25T01:20:34;8.80;;;4.63;;
60730;SDS011;46580;52.114;11.674;2023-04-25T01:23:02;10.53;;;5.00;;
60730;SDS011;46580;52.114;11.674;2023-04-25T01:25:28;8.20;;;4.23;;
60730;SDS011;46580;52.114;11.674;2023-04-25T01:27:57;8.60;;;3.93;;
60730;SDS011;46580;52.114;11.674;2023-04-25T01:30:23;6.53;;;3.80;;
60730;SDS011;46580;52.114;11.674;2023-04-25T01:32:51;7.27;;;3.90;;
60730;SDS011;46580;52.114;11.674;2023-04-25T01:35:18;8.43;;;3.63;;
60730;SDS011;46580;52.114;11.674;2023-04-25T01:37:44;7.63;;;4.00;;
60730;SDS011;46580;52.114;11.674;2023-04-25T01:40:11;6.57;;;3.83;;
60730;SDS011;46580;52.114;11.674;2023-04-25T01:42:39;8.63;;;3.97;;
60730;SDS011;46580;52.114;11.674;2023-04-25T01:45:07;9.97;;;3.90;;
60730;SDS011;46580;52.114;11.674;2023-04-25T01:47:33;7.23;;;3.63;;
60730;SDS011;46580;52.114;11.674;2023-04-25T01:50:03;7.33;;;3.70;;
60730;SDS011;46580;52.114;11.674;2023-04-25T01:52:29;7.80;;;4.23;;
60730;SDS011;46580;52.114;11.674;2023-04-25T01:54:55;8.93;;;3.87;;
60730;SDS011;46580;52.114;11.674;2023-04-25T01:57:24;6.40;;;3.80;;
60730;SDS011;46580;52.114;11.674;2023-04-25T01:59:49;10.50;;;4.40;;
60730;SDS011;46580;52.114;11.674;2023-04-25T02:02:16;12.03;;;4.40;;
60730;SDS011;46580;52.114;11.674;2023-04-25T02:04:41;7.67;;;3.47;;
60730;SDS011;46580;52.114;11.674;2023-04-25T02:07:06;6.53;;;3.67;;
60730;SDS011;46580;52.114;11.674;2023-04-25T02:09:32;6.67;;;3.97;;
60730;SDS011;46580;52.114;11.674;2023-04-25T02:11:57;5.30;;;3.70;;
60730;SDS011;46580;52.114;11.674;2023-04-25T02:14:23;10.77;;;3.93;;
60730;SDS011;46580;52.114;11.674;2023-04-25T02:16:48;9.47;;;3.80;;
60730;SDS011;46580;52.114;11.674;2023-04-25T02:19:14;8.87;;;4.60;;
60730;SDS011;46580;52.114;11.674;2023-04-25T02:21:39;7.10;;;3.73;;
60730;SDS011;46580;52.114;11.674;2023-04-25T02:24:05;9.83;;;3.70;;
60730;SDS011;46580;52.114;11.674;2023-04-25T02:26:30;10.50;;;4.00;;
60730;SDS011;46580;52.114;11.674;2023-04-25T02:28:56;10.50;;;4.27;;
60730;SDS011;46580;52.114;11.674;2023-04-25T02:31:22;7.27;;;3.47;;
60730;SDS011;46580;52.114;11.674;2023-04-25T02:33:49;7.27;;;3.07;;
60730;SDS011;46580;52.114;11.674;2023-04-25T02:36:14;6.00;;;3.27;;
60730;SDS011;46580;52.114;11.674;2023-04-25T02:38:40;10.83;;;3.90;;
60730;SDS011;46580;52.114;11.674;2023-04-25T02:41:05;7.87;;;4.30;;
60730;SDS011;46580;52.114;11.674;2023-04-25T02:43:30;8.00;;;4.30;;
60730;SDS011;46580;52.114;11.674;2023-04-25T02:45:56;8.67;;;3.63;;
60730;SDS011;46580;52.114;11.674;2023-04-25T02:48:21;9.23;;;4.50;;
60730;SDS011;46580;52.114;11.674;2023-04-25T02:50:46;8.07;;;4.10;;
60730;SDS011;46580;52.114;11.674;2023-04-25T02:53:12;10.47;;;3.90;;
60730;SDS011;46580;52.114;11.674;2023-04-25T02:55:37;5.93;;;3.73;;
60730;SDS011;46580;52.114;11.674;2023-04-25T02:58:02;9.50;;;4.17;;
60730;SDS011;46580;52.114;11.674;2023-04-25T03:00:28;7.67;;;4.00;;
60730;SDS011;46580;52.114;11.674;2023-04-25T03:02:53;17.53;;;4.13;;
60730;SDS011;46580;52.114;11.674;2023-04-25T03:05:18;9.77;;;4.47;;
60730;SDS011;46580;52.114;11.674;2023-04-25T03:07:44;7.03;;;4.27;;
60730;SDS011;46580;52.114;11.674;2023-04-25T03:10:10;10.70;;;4.33;;
60730;SDS011;46580;52.114;11.674;2023-04-25T03:12:36;7.17;;;3.97;;
60730;SDS011;46580;52.114;11.674;2023-04-25T03:15:02;11.97;;;4.67;;
60730;SDS011;46580;52.114;11.674;2023-04-25T03:17:28;16.13;;;4.80;;
60730;SDS011;46580;52.114;11.674;2023-04-25T03:19:53;11.53;;;4.40;;
60730;SDS011;46580;52.114;11.674;2023-04-25T03:22:18;11.07;;;4.50;;
60730;SDS011;46580;52.114;11.674;2023-04-25T03:24:44;8.00;;;4.90;;
60730;SDS011;46580;52.114;11.674;2023-04-25T03:27:10;9.73;;;4.30;;
60730;SDS011;46580;52.114;11.674;2023-04-25T03:29:35;13.57;;;4.43;;
60730;SDS011;46580;52.114;11.674;2023-04-25T03:32:01;8.80;;;3.97;;
60730;SDS011;46580;52.114;11.674;2023-04-25T03:34:26;8.80;;;4.47;;
60730;SDS011;46580;52.114;11.674;2023-04-25T03:36:51;12.17;;;4.87;;
60730;SDS011;46580;52.114;11.674;2023-04-25T03:39:17;12.30;;;4.50;;
60730;SDS011;46580;52.114;11.674;2023-04-25T03:41:42;11.00;;;4.30;;
60730;SDS011;46580;52.114;11.674;2023-04-25T03:44:08;11.53;;;4.27;;
60730;SDS011;46580;52.114;11.674;2023-04-25T03:46:33;8.77;;;4.10;;
60730;SDS011;46580;52.114;11.674;2023-04-25T03:48:58;11.03;;;4.57;;
60730;SDS011;46580;52.114;11.674;2023-04-25T03:51:24;10.20;;;4.27;;
60730;SDS011;46580;52.114;11.674;2023-04-25T03:53:51;12.77;;;4.43;;
60730;SDS011;46580;52.114;11.674;2023-04-25T03:56:17;11.00;;;3.80;;
60730;SDS011;46580;52.114;11.674;2023-04-25T03:58:42;13.60;;;4.60;;
60730;SDS011;46580;52.114;11.674;2023-04-25T04:01:07;12.40;;;4.53;;
60730;SDS011;46580;52.114;11.674;2023-04-25T04:03:33;11.07;;;4.37;;
60730;SDS011;46580;52.114;11.674;2023-04-25T04:06:01;10.27;;;4.50;;
60730;SDS011;46580;52.114;11.674;2023-04-25T04:08:28;11.83;;;4.13;;
60730;SDS011;46580;52.114;11.674;2023-04-25T04:10:54;12.07;;;4.93;;
60730;SDS011;46580;52.114;11.674;2023-04-25T04:13:19;9.90;;;4.27;;
60730;SDS011;46580;52.114;11.674;2023-04-25T04:15:45;7.87;;;5.00;;
60730;SDS011;46580;52.114;11.674;2023-04-25T04:18:10;10.57;;;5.03;;
60730;SDS011;46580;52.114;11.674;2023-04-25T04:20:35;7.60;;;4.37;;
60730;SDS011;46580;52.114;11.674;2023-04-25T04:23:01;12.43;;;4.97;;
60730;SDS011;46580;52.114;11.674;2023-04-25T04:25:26;11.63;;;4.50;;
60730;SDS011;46580;52.114;11.674;2023-04-25T04:27:51;12.73;;;4.43;;
60730;SDS011;46580;52.114;11.674;2023-04-25T04:30:20;9.33;;;4.57;;
60730;SDS011;46580;52.114;11.674;2023-04-25T04:32:48;12.30;;;5.53;;
60730;SDS011;46580;52.114;11.674;2023-04-25T04:35:18;9.27;;;4.77;;
60730;SDS011;46580;52.114;11.674;2023-04-25T04:37:44;13.37;;;4.80;;
60730;SDS011;46580;52.114;11.674;2023-04-25T04:40:10;14.43;;;6.10;;
60730;SDS011;46580;52.114;11.674;2023-04-25T04:42:36;10.67;;;5.10;;
60730;SDS011;46580;52.114;11.674;2023-04-25T04:45:02;13.27;;;5.27;;
60730;SDS011;46580;52.114;11.674;2023-04-25T04:47:27;10.83;;;5.37;;
60730;SDS011;46580;52.114;11.674;2023-04-25T04:49:56;9.23;;;4.87;;
60730;SDS011;46580;52.114;11.674;2023-04-25T04:52:21;11.10;;;4.90;;
60730;SDS011;46580;52.114;11.674;2023-04-25T04:54:47;14.47;;;7.10;;
60730;SDS011;46580;52.114;11.674;2023-04-25T04:57:12;14.60;;;5.70;;
60730;SDS011;46580;52.114;11.674;2023-04-25T04:59:37;15.30;;;6.03;;
60730;SDS011;46580;52.114;11.674;2023-04-25T05:02:03;9.17;;;5.73;;
60730;SDS011;46580;52.114;11.674;2023-04-25T05:04:28;13.60;;;6.10;;
60730;SDS011;46580;52.114;11.674;2023-04-25T05:06:53;14.17;;;6.20;;
60730;SDS011;46580;52.114;11.674;2023-04-25T05:09:19;11.37;;;6.77;;
60730;SDS011;46580;52.114;11.674;2023-04-25T05:11:44;18.77;;;6.73;;
60730;SDS011;46580;52.114;11.674;2023-04-25T05:14:09;14.03;;;6.30;;
60730;SDS011;46580;52.114;11.674;2023-04-25T05:16:35;9.73;;;6.07;;
60730;SDS011;46580;52.114;11.674;2023-04-25T05:19:00;15.63;;;7.40;;
60730;SDS011;46580;52.114;11.674;2023-04-25T05:21:25;15.80;;;8.63;;
60730;SDS011;46580;52.114;11.674;2023-04-25T05:23:52;14.60;;;7.63;;
60730;SDS011;46580;52.114;11.674;2023-04-25T05:26:18;12.17;;;7.00;;
60730;SDS011;46580;52.114;11.674;2023-04-25T05:28:45;15.40;;;7.30;;
60730;SDS011;46580;52.114;11.674;2023-04-25T05:31:11;14.47;;;8.13;;
60730;SDS011;46580;52.114;11.674;2023-04-25T05:33:36;17.77;;;8.87;;
60730;SDS011;46580;52.114;11.674;2023-04-25T05:36:02;18.27;;;9.17;;
60730;SDS011;46580;52.114;11.674;2023-04-25T05:38:27;15.67;;;8.27;;
60730;SDS011;46580;52.114;11.674;2023-04-25T05:40:52;14.73;;;8.87;;
60730;SDS011;46580;52.114;11.674;2023-04-25T05:43:18;16.03;;;9.60;;
60730;SDS011;46580;52.114;11.674;2023-04-25T05:45:43;16.50;;;8.53;;
60730;SDS011;46580;52.114;11.674;2023-04-25T05:48:09;15.53;;;8.60;;
60730;SDS011;46580;52.114;11.674;2023-04-25T05:50:34;13.03;;;8.20;;
60730;SDS011;46580;52.114;11.674;2023-04-25T05:53:00;20.23;;;9.13;;
60730;SDS011;46580;52.114;11.674;2023-04-25T05:55:25;19.37;;;9.50;;
60730;SDS011;46580;52.114;11.674;2023-04-25T05:57:50;17.03;;;7.07;;
60730;SDS011;46580;52.114;11.674;2023-04-25T06:00:16;9.77;;;6.17;;
60730;SDS011;46580;52.114;11.674;2023-04-25T06:02:41;7.90;;;5.40;;
60730;SDS011;46580;52.114;11.674;2023-04-25T06:05:07;10.03;;;4.13;;
60730;SDS011;46580;52.114;11.674;2023-04-25T06:07:33;6.13;;;2.97;;
60730;SDS011;46580;52.114;11.674;2023-04-25T06:09:58;10.63;;;3.43;;
60730;SDS011;46580;52.114;11.674;2023-04-25T06:12:25;10.00;;;3.43;;
60730;SDS011;46580;52.114;11.674;2023-04-25T06:14:51;9.87;;;2.70;;
60730;SDS011;46580;52.114;11.674;2023-04-25T06:17:16;7.80;;;2.73;;
60730;SDS011;46580;52.114;11.674;2023-04-25T06:19:41;10.00;;;3.10;;
60730;SDS011;46580;52.114;11.674;2023-04-25T06:22:07;7.87;;;2.47;;
60730;SDS011;46580;52.114;11.674;2023-04-25T06:24:32;10.27;;;3.37;;
60730;SDS011;46580;52.114;11.674;2023-04-25T06:26:58;12.43;;;2.43;;
60730;SDS011;46580;52.114;11.674;2023-04-25T06:29:23;10.97;;;2.87;;
60730;SDS011;46580;52.114;11.674;2023-04-25T06:31:49;8.07;;;2.80;;
60730;SDS011;46580;52.114;11.674;2023-04-25T06:34:14;9.87;;;2.67;;
60730;SDS011;46580;52.114;11.674;2023-04-25T06:36:40;10.60;;;2.77;;
60730;SDS011;46580;52.114;11.674;2023-04-25T06:39:06;12.23;;;3.10;;
60730;SDS011;46580;52.114;11.674;2023-04-25T06:41:32;13.20;;;2.77;;
60730;SDS011;46580;52.114;11.674;2023-04-25T06:43:57;10.90;;;3.70;;
60730;SDS011;46580;52.114;11.674;2023-04-25T06:46:22;14.00;;;3.13;;
60730;SDS011;46580;52.114;11.674;2023-04-25T06:48:48;13.53;;;2.70;;
60730;SDS011;46580;52.114;11.674;2023-04-25T06:51:13;8.57;;;2.47;;
60730;SDS011;46580;52.114;11.674;2023-04-25T06:53:38;9.97;;;2.80;;
60730;SDS011;46580;52.114;11.674;2023-04-25T06:56:05;15.23;;;3.43;;
60730;SDS011;46580;52.114;11.674;2023-04-25T06:58:30;9.60;;;3.23;;
60730;SDS011;46580;52.114;11.674;2023-04-25T07:00:56;7.40;;;2.53;;
60730;SDS011;46580;52.114;11.674;2023-04-25T07:03:22;9.73;;;2.73;;
60730;SDS011;46580;52.114;11.674;2023-04-25T07:05:47;12.50;;;3.53;;
60730;SDS011;46580;52.114;11.674;2023-04-25T07:08:13;21.70;;;3.43;;
60730;SDS011;46580;52.114;11.674;2023-04-25T07:10:38;17.20;;;3.50;;
60730;SDS011;46580;52.114;11.674;2023-04-25T07:13:03;13.00;;;3.40;;
60730;SDS011;46580;52.114;11.674;2023-04-25T07:15:29;18.27;;;3.70;;
60730;SDS011;46580;52.114;11.674;2023-04-25T07:17:54;12.97;;;3.47;;
60730;SDS011;46580;52.114;11.674;2023-04-25T07:20:19;12.60;;;2.63;;
60730;SDS011;46580;52.114;11.674;2023-04-25T07:22:45;14.67;;;3.03;;
60730;SDS011;46580;52.114;11.674;2023-04-25T07:25:10;10.50;;;2.73;;
60730;SDS011;46580;52.114;11.674;2023-04-25T07:27:35;12.13;;;2.90;;
60730;SDS011;46580;52.114;11.674;2023-04-25T07:30:01;11.57;;;2.80;;
60730;SDS011;46580;52.114;11.674;2023-04-25T07:32:27;10.70;;;2.50;;
60730;SDS011;46580;52.114;11.674;2023-04-25T07:34:52;12.53;;;3.27;;
60730;SDS011;46580;52.114;11.674;2023-04-25T07:37:18;10.60;;;2.40;;
60730;SDS011;46580;52.114;11.674;2023-04-25T07:39:43;13.10;;;2.70;;
60730;SDS011;46580;52.114;11.674;2023-04-25T07:42:11;9.20;;;2.40;;
60730;SDS011;46580;52.114;11.674;2023-04-25T07:44:36;16.83;;;1.93;;
60730;SDS011;46580;52.114;11.674;2023-04-25T07:47:06;8.97;;;2.00;;
60730;SDS011;46580;52.114;11.674;2023-04-25T07:49:36;6.93;;;3.07;;
60730;SDS011;46580;52.114;11.674;2023-04-25T07:52:02;7.90;;;2.27;;
60730;SDS011;46580;52.114;11.674;2023-04-25T07:54:28;15.30;;;2.93;;
60730;SDS011;46580;52.114;11.674;2023-04-25T07:56:54;10.47;;;2.60;;
60730;SDS011;46580;52.114;11.674;2023-04-25T07:59:19;8.80;;;2.10;;
60730;SDS011;46580;52.114;11.674;2023-04-25T08:01:45;14.10;;;2.70;;
60730;SDS011;46580;52.114;11.674;2023-04-25T08:04:10;14.97;;;2.30;;
60730;SDS011;46580;52.114;11.674;2023-04-25T08:06:36;12.80;;;2.67;;
60730;SDS011;46580;52.114;11.674;2023-04-25T08:09:01;9.57;;;2.77;;
60730;SDS011;46580;52.114;11.674;2023-04-25T08:11:28;11.23;;;2.17;;
60730;SDS011;46580;52.114;11.674;2023-04-25T08:13:53;6.93;;;2.10;;
60730;SDS011;46580;52.114;11.674;2023-04-25T08:16:19;9.40;;;2.10;;
60730;SDS011;46580;52.114;11.674;2023-04-25T08:18:44;10.33;;;2.17;;
60730;SDS011;46580;52.114;11.674;2023-04-25T08:21:10;13.73;;;2.70;;
60730;SDS011;46580;52.114;11.674;2023-04-25T08:23:36;15.57;;;2.57;;
60730;SDS011;46580;52.114;11.674;2023-04-25T08:26:02;5.77;;;2.10;;
60730;SDS011;46580;52.114;11.674;2023-04-25T08:28:27;9.90;;;2.10;;
60730;SDS011;46580;52.114;11.674;2023-04-25T08:30:53;9.00;;;2.20;;
60730;SDS011;46580;52.114;11.674;2023-04-25T08:33:18;12.27;;;2.33;;
60730;SDS011;46580;52.114;11.674;2023-04-25T08:35:44;7.80;;;2.00;;
60730;SDS011;46580;52.114;11.674;2023-04-25T08:38:09;13.37;;;1.90;;
60730;SDS011;46580;52.114;11.674;2023-04-25T08:40:35;19.30;;;3.40;;
60730;SDS011;46580;52.114;11.674;2023-04-25T08:43:03;9.80;;;2.00;;
60730;SDS011;46580;52.114;11.674;2023-04-25T08:45:31;11.60;;;3.00;;
60730;SDS011;46580;52.114;11.674;2023-04-25T08:47:57;6.90;;;1.90;;
60730;SDS011;46580;52.114;11.674;2023-04-25T08:50:23;11.80;;;2.87;;
60730;SDS011;46580;52.114;11.674;2023-04-25T08:52:50;11.97;;;2.20;;
60730;SDS011;46580;52.114;11.674;2023-04-25T08:55:17;12.33;;;2.07;;
60730;SDS011;46580;52.114;11.674;2023-04-25T08:57:43;11.33;;;2.20;;
60730;SDS011;46580;52.114;11.674;2023-04-25T09:00:10;10.43;;;1.90;;
60730;SDS011;46580;52.114;11.674;2023-04-25T09:02:37;10.10;;;2.50;;
60730;SDS011;46580;52.114;11.674;2023-04-25T09:05:04;12.10;;;2.60;;
60730;SDS011;46580;52.114;11.674;2023-04-25T09:07:31;6.00;;;1.77;;
60730;SDS011;46580;52.114;11.674;2023-04-25T09:09:56;6.20;;;2.10;;
60730;SDS011;46580;52.114;11.674;2023-04-25T09:12:24;8.13;;;2.07;;
60730;SDS011;46580;52.114;11.674;2023-04-25T09:17:30;5.93;;;2.00;;
60730;SDS011;46580;52.114;11.674;2023-04-25T09:19:55;5.77;;;1.97;;
60730;SDS011;46580;52.114;11.674;2023-04-25T09:22:30;3.80;;;1.63;;
60730;SDS011;46580;52.114;11.674;2023-04-25T09:24:56;10.10;;;1.97;;
60730;SDS011;46580;52.114;11.674;2023-04-25T09:27:21;6.27;;;2.17;;
60730;SDS011;46580;52.114;11.674;2023-04-25T09:29:56;8.50;;;1.73;;
60730;SDS011;46580;52.114;11.674;2023-04-25T09:32:24;9.63;;;1.50;;
60730;SDS011;46580;52.114;11.674;2023-04-25T09:34:50;9.00;;;1.83;;
60730;SDS011;46580;52.114;11.674;2023-04-25T09:37:24;4.13;;;1.47;;
60730;SDS011;46580;52.114;11.674;2023-04-25T09:39:54;8.13;;;2.10;;
60730;SDS011;46580;52.114;11.674;2023-04-25T09:42:24;6.93;;;2.20;;
60730;SDS011;46580;52.114;11.674;2023-04-25T09:44:53;7.07;;;1.90;;
60730;SDS011;46580;52.114;11.674;2023-04-25T09:47:20;6.40;;;1.87;;
60730;SDS011;46580;52.114;11.674;2023-04-25T09:49:47;5.40;;;1.70;;
60730;SDS011;46580;52.114;11.674;2023-04-25T09:52:13;9.93;;;1.80;;
60730;SDS011;46580;52.114;11.674;2023-04-25T09:54:40;8.30;;;1.50;;
60730;SDS011;46580;52.114;11.674;2023-04-25T09:59:52;5.70;;;1.50;;
60730;SDS011;46580;52.114;11.674;2023-04-25T10:02:20;6.87;;;1.87;;
60730;SDS011;46580;52.114;11.674;2023-04-25T10:04:53;7.53;;;1.60;;
60730;SDS011;46580;52.114;11.674;2023-04-25T10:07:20;10.57;;;2.07;;
60730;SDS011;46580;52.114;11.674;2023-04-25T10:09:51;7.83;;;1.53;;
60730;SDS011;46580;52.114;11.674;2023-04-25T10:12:24;9.97;;;1.90;;
60730;SDS011;46580;52.114;11.674;2023-04-25T10:14:49;7.17;;;2.00;;
60730;SDS011;46580;52.114;11.674;2023-04-25T10:17:15;9.80;;;2.03;;
60730;SDS011;46580;52.114;11.674;2023-04-25T10:19:42;5.80;;;1.37;;
60730;SDS011;46580;52.114;11.674;2023-04-25T10:24:42;5.27;;;1.87;;
60730;SDS011;46580;52.114;11.674;2023-04-25T10:27:09;7.60;;;1.87;;
60730;SDS011;46580;52.114;11.674;2023-04-25T10:29:34;6.93;;;2.00;;
60730;SDS011;46580;52.114;11.674;2023-04-25T10:32:00;8.43;;;1.70;;
60730;SDS011;46580;52.114;11.674;2023-04-25T10:34:42;5.77;;;1.57;;
60730;SDS011;46580;52.114;11.674;2023-04-25T10:37:09;7.73;;;1.70;;
60730;SDS011;46580;52.114;11.674;2023-04-25T10:39:35;7.67;;;1.80;;
60730;SDS011;46580;52.114;11.674;2023-04-25T10:42:09;8.30;;;1.90;;
60730;SDS011;46580;52.114;11.674;2023-04-25T10:44:34;11.60;;;1.90;;
60730;SDS011;46580;52.114;11.674;2023-04-25T10:47:02;7.23;;;2.17;;
60730;SDS011;46580;52.114;11.674;2023-04-25T10:49:40;10.13;;;2.40;;
60730;SDS011;46580;52.114;11.674;2023-04-25T10:55:03;5.10;;;1.83;;
60730;SDS011;46580;52.114;11.674;2023-04-25T11:02:30;6.17;;;1.97;;
60730;SDS011;46580;52.114;11.674;2023-04-25T11:04:55;11.23;;;1.90;;
60730;SDS011;46580;52.114;11.674;2023-04-25T11:09:55;9.23;;;2.20;;
60730;SDS011;46580;52.114;11.674;2023-04-25T11:12:21;3.67;;;1.63;;
60730;SDS011;46580;52.114;11.674;2023-04-25T11:14:46;4.60;;;1.67;;
60730;SDS011;46580;52.114;11.674;2023-04-25T11:17:11;8.07;;;1.80;;
60730;SDS011;46580;52.114;11.674;2023-04-25T11:19:37;4.80;;;1.73;;
60730;SDS011;46580;52.114;11.674;2023-04-25T11:22:02;5.43;;;1.57;;
60730;SDS011;46580;52.114;11.674;2023-04-25T11:26:54;9.93;;;1.60;;
60730;SDS011;46580;52.114;11.674;2023-04-25T11:29:23;7.90;;;1.47;;
60730;SDS011;46580;52.114;11.674;2023-04-25T11:31:51;6.40;;;1.40;;
60730;SDS011;46580;52.114;11.674;2023-04-25T11:34:18;3.93;;;1.40;;
60730;SDS011;46580;52.114;11.674;2023-04-25T11:36:44;3.27;;;1.30;;
60730;SDS011;46580;52.114;11.674;2023-04-25T11:39:11;4.90;;;1.20;;
60730;SDS011;46580;52.114;11.674;2023-04-25T11:41:39;5.87;;;1.50;;
60730;SDS011;46580;52.114;11.674;2023-04-25T11:44:05;4.03;;;1.50;;
60730;SDS011;46580;52.114;11.674;2023-04-25T11:46:33;8.47;;;1.47;;
60730;SDS011;46580;52.114;11.674;2023-04-25T11:48:59;6.33;;;1.30;;
60730;SDS011;46580;52.114;11.674;2023-04-25T11:51:24;4.93;;;1.20;;
60730;SDS011;46580;52.114;11.674;2023-04-25T11:53:51;4.80;;;1.27;;
60730;SDS011;46580;52.114;11.674;2023-04-25T11:56:16;4.90;;;1.63;;
60730;SDS011;46580;52.114;11.674;2023-04-25T11:58:55;6.27;;;1.60;;
60730;SDS011;46580;52.114;11.674;2023-04-25T12:01:28;9.10;;;1.20;;
60730;SDS011;46580;52.114;11.674;2023-04-25T12:04:10;5.67;;;1.87;;
60730;SDS011;46580;52.114;11.674;2023-04-25T12:06:41;5.73;;;1.50;;
60730;SDS011;46580;52.114;11.674;2023-04-25T12:09:08;8.03;;;2.17;;
60730;SDS011;46580;52.114;11.674;2023-04-25T12:11:41;4.47;;;1.33;;
60730;SDS011;46580;52.114;11.674;2023-04-25T12:14:08;5.57;;;1.67;;
60730;SDS011;46580;52.114;11.674;2023-04-25T12:16:43;9.80;;;1.47;;
60730;SDS011;46580;52.114;11.674;2023-04-25T12:19:13;5.47;;;1.50;;
60730;SDS011;46580;52.114;11.674;2023-04-25T12:21:39;4.87;;;1.70;;
60730;SDS011;46580;52.114;11.674;2023-04-25T12:24:09;4.60;;;1.33;;
60730;SDS011;46580;52.114;11.674;2023-04-25T12:26:47;2.70;;;1.27;;
60730;SDS011;46580;52.114;11.674;2023-04-25T12:29:17;2.73;;;1.40;;
60730;SDS011;46580;52.114;11.674;2023-04-25T12:31:47;4.63;;;1.10;;
60730;SDS011;46580;52.114;11.674;2023-04-25T12:34:13;10.10;;;1.40;;
60730;SDS011;46580;52.114;11.674;2023-04-25T12:36:38;3.90;;;1.53;;
60730;SDS011;46580;52.114;11.674;2023-04-25T12:39:04;5.47;;;1.40;;
60730;SDS011;46580;52.114;11.674;2023-04-25T12:41:30;8.23;;;1.50;;
60730;SDS011;46580;52.114;11.674;2023-04-25T12:43:55;3.80;;;1.43;;
60730;SDS011;46580;52.114;11.674;2023-04-25T12:46:21;6.13;;;1.30;;
60730;SDS011;46580;52.114;11.674;2023-04-25T12:48:48;4.70;;;1.20;;
60730;SDS011;46580;52.114;11.674;2023-04-25T12:51:13;4.23;;;1.10;;
60730;SDS011;46580;52.114;11.674;2023-04-25T12:53:38;5.60;;;1.40;;
60730;SDS011;46580;52.114;11.674;2023-04-25T12:56:06;4.20;;;1.33;;
60730;SDS011;46580;52.114;11.674;2023-04-25T12:58:32;6.47;;;1.67;;
60730;SDS011;46580;52.114;11.674;2023-04-25T13:00:58;6.87;;;1.37;;
60730;SDS011;46580;52.114;11.674;2023-04-25T13:03:24;7.13;;;1.50;;
60730;SDS011;46580;52.114;11.674;2023-04-25T13:05:50;4.13;;;1.10;;
60730;SDS011;46580;52.114;11.674;2023-04-25T13:08:17;5.10;;;1.37;;
60730;SDS011;46580;52.114;11.674;2023-04-25T13:10:43;4.00;;;1.17;;
60730;SDS011;46580;52.114;11.674;2023-04-25T13:13:08;2.37;;;1.10;;
60730;SDS011;46580;52.114;11.674;2023-04-25T13:15:33;1.70;;;1.37;;
60730;SDS011;46580;52.114;11.674;2023-04-25T13:17:59;4.47;;;1.10;;
60730;SDS011;46580;52.114;11.674;2023-04-25T13:20:24;7.13;;;1.33;;
60730;SDS011;46580;52.114;11.674;2023-04-25T13:22:49;5.00;;;1.37;;
60730;SDS011;46580;52.114;11.674;2023-04-25T13:25:15;2.27;;;0.93;;
60730;SDS011;46580;52.114;11.674;2023-04-25T13:27:41;5.77;;;1.20;;
60730;SDS011;46580;52.114;11.674;2023-04-25T13:30:09;4.20;;;1.23;;
60730;SDS011;46580;52.114;11.674;2023-04-25T13:32:34;6.33;;;1.33;;
60730;SDS011;46580;52.114;11.674;2023-04-25T13:35:01;7.43;;;1.23;;
60730;SDS011;46580;52.114;11.674;2023-04-25T13:37:27;5.60;;;1.10;;
60730;SDS011;46580;52.114;11.674;2023-04-25T13:39:54;2.73;;;1.13;;
60730;SDS011;46580;52.114;11.674;2023-04-25T13:42:20;5.87;;;1.10;;
60730;SDS011;46580;52.114;11.674;2023-04-25T13:44:54;6.83;;;1.10;;
60730;SDS011;46580;52.114;11.674;2023-04-25T13:47:20;4.60;;;1.23;;
60730;SDS011;46580;52.114;11.674;2023-04-25T13:49:45;2.50;;;0.80;;
60730;SDS011;46580;52.114;11.674;2023-04-25T13:52:10;2.20;;;1.23;;
60730;SDS011;46580;52.114;11.674;2023-04-25T13:54:36;6.93;;;1.00;;
60730;SDS011;46580;52.114;11.674;2023-04-25T13:57:03;5.83;;;1.10;;
60730;SDS011;46580;52.114;11.674;2023-04-25T13:59:28;4.17;;;1.17;;
60730;SDS011;46580;52.114;11.674;2023-04-25T14:01:55;5.93;;;1.30;;
60730;SDS011;46580;52.114;11.674;2023-04-25T14:04:24;7.63;;;1.37;;
60730;SDS011;46580;52.114;11.674;2023-04-25T14:06:54;2.27;;;1.00;;
60730;SDS011;46580;52.114;11.674;2023-04-25T14:09:20;1.80;;;0.90;;
60730;SDS011;46580;52.114;11.674;2023-04-25T14:11:50;4.07;;;0.70;;
60730;SDS011;46580;52.114;11.674;2023-04-25T14:14:16;2.87;;;1.00;;
60730;SDS011;46580;52.114;11.674;2023-04-25T14:16:43;4.80;;;0.90;;
60730;SDS011;46580;52.114;11.674;2023-04-25T14:19:09;3.57;;;0.80;;
60730;SDS011;46580;52.114;11.674;2023-04-25T14:21:35;4.73;;;1.00;;
60730;SDS011;46580;52.114;11.674;2023-04-25T14:24:00;4.43;;;1.03;;
60730;SDS011;46580;52.114;11.674;2023-04-25T14:26:25;5.53;;;0.90;;
60730;SDS011;46580;52.114;11.674;2023-04-25T14:28:51;5.93;;;1.17;;
60730;SDS011;46580;52.114;11.674;2023-04-25T14:31:17;2.43;;;0.90;;
60730;SDS011;46580;52.114;11.674;2023-04-25T14:33:42;2.07;;;0.87;;
60730;SDS011;46580;52.114;11.674;2023-04-25T14:36:08;4.57;;;0.80;;
60730;SDS011;46580;52.114;11.674;2023-04-25T14:38:33;3.97;;;0.67;;
60730;SDS011;46580;52.114;11.674;2023-04-25T14:40:59;2.00;;;0.53;;
60730;SDS011;46580;52.114;11.674;2023-04-25T14:43:24;3.53;;;1.00;;
60730;SDS011;46580;52.114;11.674;2023-04-25T14:45:49;2.77;;;1.00;;